Terminal Aerodrome Forecast
Issued by NWS

Home | Current Version | Previous Version | Text Only | Print | Product List | Glossary On
Versions: 1 2 3 4 5 6 7 8 9 10 11 12 13 14 15
747
FTUS44 KCRP 010532
TAFLRD
TAF
KLRD 010532Z 0106/0206 06007KT P6SM SCT250
     FM010900 10005KT 6SM HZ SCT007 BKN012
      TEMPO 0110/0113 3SM BR BKN007
     FM011600 09007KT P6SM BKN018
     FM012000 09011KT P6SM SCT040
     FM020200 08012KT P6SM BKN030 PROB30 0202/0206 5SM TSRA
      OVC020CB=

USA.gov is the U.S. government's official web portal to all federal, state and local government web resources and services.